Saratoga Springs, NY (12866)

4:46 PM EDT on September 02, 2014 (GMT -0400)
KNYSARAT7 | Change Station
CLOSE
Current Station
Personal Weather Station
Location: SARATOGA SPRINGS, NY
Elevation: 309 ft
Nearby Weather Stations

Elev 309 ft 43.06 °N, 73.78 °W | Updated 11 minutes ago

Partly Cloudy
Partly Cloudy
83.9 °F
Feels Like 89 °F
N
0.0
Wind Variable Wind from South
Gusts 3.0 mph

Today
High -- | Low -- °F
--% Chance of Precip.
Yesterday
High -- | Low -- °F
Precip. -- in
6:20 AM 7:28 PM
First Quarter, 55% visible
Pressure 29.85 in
Visibility 10.0 miles
Clouds Scattered Clouds 3300 ft
Scattered Clouds 4000 ft
Mostly Cloudy 8500 ft
Heat Index 89 °F
Dew Point 72 °F
Humidity 67%
Rainfall 0.00 in
Snow Depth Not available.
UV 4 out of 12
Pollen 6.80 out of 12
PM2.5 Good
Flu Activity Not available.
METAR KSCH 021750Z 26004KT 10SM SCT033 SCT040 BKN085 30/20 A2985

More Conditions Fewer Conditions

Pressure 29.85 in
Visibility 10.0 miles
Clouds Scattered Clouds 3300 ft
Scattered Clouds 4000 ft
Mostly Cloudy 8500 ft
Heat Index 89 °F
Dew Point 72 °F
Humidity 67%
Rainfall 0.00 in
Snow Depth Not available.
UV 4 out of 12
Pollen 6.80 out of 12
PM2.5 Good
Flu Activity Not available.
METAR KSCH 021750Z 26004KT 10SM SCT033 SCT040 BKN085 30/20 A2985

More Conditions Fewer Conditions

10-Day Weather Forecast

Almanac

Astronomy

Sep. 02, 2014 Rise Set
Actual Time 6:20 AM EDT 7:28 PM EDT
Civil Twilight 5:51 AM EDT 7:57 PM EDT
Nautical Twilight 5:16 AM EDT 8:32 PM EDT
Astronomical Twilight 4:39 AM EDT 9:08 PM EDT
Moon 2:13 PM EDT No Moon Set
Length of Visible Light 14h 06m
Length of Day
13h 07m
Tomorrow will be 2m 51s shorter.
First Quarter, 55% of the Moon is Illuminated
Today
First Quarter
Sep 8
Full
Sep 15
Last Quarter
Sep 24
New
Oct 1
First Quarter

Today's Extremes

State Highs State Lows

Community

WunderPhotos

Upload Photos

1,749,763 photos uploaded!

WunderBlogs® & News

Nearby

Air Quality

  Air Quality AQ Index Pollutant
Yesterday Good
OZONE
Yesterday Good
PM2.5
Current Good
PM2.5
Tuesday Good
PM2.5
Tuesday Good
OZONE
Wednesday Good
PM2.5

Snow Depth

Station Depth Elevation
No new snow has been reported.

Earthquake Activity

City Distance Mag. Time & Date
No recent earthquake activity has been reported nearby.
Minimum magnitude displayed is 2.5.

Coastal Water Temperatures

Place Temperature
No Stations Reporting

Nearby Weather Stations